Contoocook, New Hampshire
Current Conditions -  °F | °C
As of 6:51 AM on Friday 24 Oct 2014 (Local Time) from KCON Reporting Station
Overcast Overcast  
Wind Chill: 44°   Ceiling: 2500
Heat Index: 47°   Visibility: 10mi
Dew Point: 46°   Wind: 7mph
Humidity: 97%   Direction: 320°NW
Pressure: 29.71"   Gusts: NA
Location:  43.22°N, 71.71°W
Report Text: KCON 241051Z AUTO 32006KT 10SM FEW007 OVC025 08/08 A2971 RMK AO2 SLP062 T00830078
Loading
Personal Weather Stations






























Interactive Weather Map
Tropical Storm Tracking
New forecast layout! Learn more

10-Day Weather Forecast

Advertisements
Track Severe Weather on mobile